sensor_id;sensor_type;location;lat;lon;timestamp;P1;durP1;ratioP1;P2;durP2;ratioP2
20888;SDS011;10604;51.976;7.594;2023-04-01T00:02:16;4.80;;;1.80;;
20888;SDS011;10604;51.976;7.594;2023-04-01T00:04:41;4.40;;;1.67;;
20888;SDS011;10604;51.976;7.594;2023-04-01T00:07:08;4.35;;;1.60;;
20888;SDS011;10604;51.976;7.594;2023-04-01T00:09:33;5.93;;;1.90;;
20888;SDS011;10604;51.976;7.594;2023-04-01T00:12:00;3.75;;;1.55;;
20888;SDS011;10604;51.976;7.594;2023-04-01T00:14:25;6.87;;;1.87;;
20888;SDS011;10604;51.976;7.594;2023-04-01T00:16:51;4.35;;;1.98;;
20888;SDS011;10604;51.976;7.594;2023-04-01T00:19:17;4.07;;;1.85;;
20888;SDS011;10604;51.976;7.594;2023-04-01T00:21:43;4.50;;;1.60;;
20888;SDS011;10604;51.976;7.594;2023-04-01T00:24:08;4.50;;;1.85;;
20888;SDS011;10604;51.976;7.594;2023-04-01T00:26:34;3.83;;;1.90;;
20888;SDS011;10604;51.976;7.594;2023-04-01T00:28:59;4.67;;;2.03;;
20888;SDS011;10604;51.976;7.594;2023-04-01T00:31:25;4.95;;;2.05;;
20888;SDS011;10604;51.976;7.594;2023-04-01T00:33:51;4.78;;;1.90;;
20888;SDS011;10604;51.976;7.594;2023-04-01T00:36:17;4.33;;;1.83;;
20888;SDS011;10604;51.976;7.594;2023-04-01T00:38:44;3.20;;;1.70;;
20888;SDS011;10604;51.976;7.594;2023-04-01T00:41:12;4.43;;;1.55;;
20888;SDS011;10604;51.976;7.594;2023-04-01T00:43:40;3.53;;;1.80;;
20888;SDS011;10604;51.976;7.594;2023-04-01T00:46:06;5.30;;;1.90;;
20888;SDS011;10604;51.976;7.594;2023-04-01T00:48:33;5.17;;;1.60;;
20888;SDS011;10604;51.976;7.594;2023-04-01T00:51:02;3.35;;;1.73;;
20888;SDS011;10604;51.976;7.594;2023-04-01T00:53:32;2.53;;;1.60;;
20888;SDS011;10604;51.976;7.594;2023-04-01T00:56:03;5.50;;;2.20;;
20888;SDS011;10604;51.976;7.594;2023-04-01T00:58:32;4.53;;;1.70;;
20888;SDS011;10604;51.976;7.594;2023-04-01T01:01:01;3.25;;;1.83;;
20888;SDS011;10604;51.976;7.594;2023-04-01T01:03:27;5.03;;;1.93;;
20888;SDS011;10604;51.976;7.594;2023-04-01T01:11:51;4.22;;;1.63;;
20888;SDS011;10604;51.976;7.594;2023-04-01T01:26:29;4.43;;;2.10;;
20888;SDS011;10604;51.976;7.594;2023-04-01T01:31:57;4.27;;;2.40;;
20888;SDS011;10604;51.976;7.594;2023-04-01T01:37:16;4.50;;;2.40;;
20888;SDS011;10604;51.976;7.594;2023-04-01T01:39:44;3.92;;;2.38;;
20888;SDS011;10604;51.976;7.594;2023-04-01T01:42:14;5.10;;;2.30;;
20888;SDS011;10604;51.976;7.594;2023-04-01T01:44:44;4.17;;;2.27;;
20888;SDS011;10604;51.976;7.594;2023-04-01T01:47:11;3.15;;;2.00;;
20888;SDS011;10604;51.976;7.594;2023-04-01T01:49:39;3.83;;;2.05;;
20888;SDS011;10604;51.976;7.594;2023-04-01T01:52:07;4.35;;;2.40;;
20888;SDS011;10604;51.976;7.594;2023-04-01T01:54:32;3.40;;;2.20;;
20888;SDS011;10604;51.976;7.594;2023-04-01T01:57:03;3.67;;;2.33;;
20888;SDS011;10604;51.976;7.594;2023-04-01T01:59:32;3.23;;;2.10;;
20888;SDS011;10604;51.976;7.594;2023-04-01T02:02:00;3.40;;;1.90;;
20888;SDS011;10604;51.976;7.594;2023-04-01T02:04:33;4.22;;;1.95;;
20888;SDS011;10604;51.976;7.594;2023-04-01T02:07:04;2.83;;;2.20;;
20888;SDS011;10604;51.976;7.594;2023-04-01T02:09:36;3.95;;;2.50;;
20888;SDS011;10604;51.976;7.594;2023-04-01T02:12:08;4.28;;;2.47;;
20888;SDS011;10604;51.976;7.594;2023-04-01T02:17:17;3.97;;;2.80;;
20888;SDS011;10604;51.976;7.594;2023-04-01T02:22:20;4.43;;;3.10;;
20888;SDS011;10604;51.976;7.594;2023-04-01T02:24:52;3.97;;;3.00;;
20888;SDS011;10604;51.976;7.594;2023-04-01T02:27:20;3.83;;;3.03;;
20888;SDS011;10604;51.976;7.594;2023-04-01T02:29:46;4.55;;;3.08;;
20888;SDS011;10604;51.976;7.594;2023-04-01T02:32:11;4.23;;;3.10;;
20888;SDS011;10604;51.976;7.594;2023-04-01T02:34:38;3.40;;;2.80;;
20888;SDS011;10604;51.976;7.594;2023-04-01T02:37:04;3.67;;;2.80;;
20888;SDS011;10604;51.976;7.594;2023-04-01T02:39:29;3.80;;;2.63;;
20888;SDS011;10604;51.976;7.594;2023-04-01T02:41:55;3.63;;;2.60;;
20888;SDS011;10604;51.976;7.594;2023-04-01T02:44:20;2.80;;;2.57;;
20888;SDS011;10604;51.976;7.594;2023-04-01T02:46:45;3.63;;;2.53;;
20888;SDS011;10604;51.976;7.594;2023-04-01T02:49:11;2.73;;;2.13;;
20888;SDS011;10604;51.976;7.594;2023-04-01T02:51:37;3.07;;;2.77;;
20888;SDS011;10604;51.976;7.594;2023-04-01T02:54:02;2.90;;;2.60;;
20888;SDS011;10604;51.976;7.594;2023-04-01T02:56:27;3.60;;;2.60;;
20888;SDS011;10604;51.976;7.594;2023-04-01T02:58:53;3.05;;;2.47;;
20888;SDS011;10604;51.976;7.594;2023-04-01T03:01:19;3.92;;;2.80;;
20888;SDS011;10604;51.976;7.594;2023-04-01T03:03:46;3.88;;;2.95;;
20888;SDS011;10604;51.976;7.594;2023-04-01T03:06:12;4.65;;;2.80;;
20888;SDS011;10604;51.976;7.594;2023-04-01T03:08:39;3.75;;;3.05;;
20888;SDS011;10604;51.976;7.594;2023-04-01T03:11:05;3.30;;;3.00;;
20888;SDS011;10604;51.976;7.594;2023-04-01T03:13:30;4.43;;;3.10;;
20888;SDS011;10604;51.976;7.594;2023-04-01T03:15:56;3.58;;;2.97;;
20888;SDS011;10604;51.976;7.594;2023-04-01T03:18:22;3.57;;;3.20;;
20888;SDS011;10604;51.976;7.594;2023-04-01T03:20:47;3.47;;;3.15;;
20888;SDS011;10604;51.976;7.594;2023-04-01T03:23:12;4.10;;;3.33;;
20888;SDS011;10604;51.976;7.594;2023-04-01T03:25:38;3.65;;;3.35;;
20888;SDS011;10604;51.976;7.594;2023-04-01T03:28:04;3.33;;;3.03;;
20888;SDS011;10604;51.976;7.594;2023-04-01T03:30:29;4.47;;;3.33;;
20888;SDS011;10604;51.976;7.594;2023-04-01T03:32:56;3.47;;;3.17;;
20888;SDS011;10604;51.976;7.594;2023-04-01T03:35:22;4.15;;;3.28;;
20888;SDS011;10604;51.976;7.594;2023-04-01T03:37:48;4.40;;;3.10;;
20888;SDS011;10604;51.976;7.594;2023-04-01T03:40:15;4.03;;;3.08;;
20888;SDS011;10604;51.976;7.594;2023-04-01T03:42:40;3.92;;;3.30;;
20888;SDS011;10604;51.976;7.594;2023-04-01T03:45:06;3.57;;;3.27;;
20888;SDS011;10604;51.976;7.594;2023-04-01T03:47:31;3.37;;;3.03;;
20888;SDS011;10604;51.976;7.594;2023-04-01T03:49:57;3.40;;;2.80;;
20888;SDS011;10604;51.976;7.594;2023-04-01T03:52:22;3.93;;;3.20;;
20888;SDS011;10604;51.976;7.594;2023-04-01T03:54:47;3.40;;;3.10;;
20888;SDS011;10604;51.976;7.594;2023-04-01T03:57:13;3.50;;;2.90;;
20888;SDS011;10604;51.976;7.594;2023-04-01T03:59:38;4.23;;;3.20;;
20888;SDS011;10604;51.976;7.594;2023-04-01T04:02:03;3.70;;;2.80;;
20888;SDS011;10604;51.976;7.594;2023-04-01T04:04:29;2.90;;;2.60;;
20888;SDS011;10604;51.976;7.594;2023-04-01T04:06:55;3.20;;;2.67;;
20888;SDS011;10604;51.976;7.594;2023-04-01T04:09:21;3.03;;;2.65;;
20888;SDS011;10604;51.976;7.594;2023-04-01T04:11:46;2.60;;;2.40;;
20888;SDS011;10604;51.976;7.594;2023-04-01T04:14:12;5.47;;;2.30;;
20888;SDS011;10604;51.976;7.594;2023-04-01T04:16:37;4.47;;;2.10;;
20888;SDS011;10604;51.976;7.594;2023-04-01T04:19:03;3.43;;;2.10;;
20888;SDS011;10604;51.976;7.594;2023-04-01T04:21:29;2.72;;;2.20;;
20888;SDS011;10604;51.976;7.594;2023-04-01T04:23:54;3.17;;;2.00;;
20888;SDS011;10604;51.976;7.594;2023-04-01T04:26:20;2.88;;;2.03;;
20888;SDS011;10604;51.976;7.594;2023-04-01T04:28:45;2.03;;;1.83;;
20888;SDS011;10604;51.976;7.594;2023-04-01T04:31:11;2.70;;;2.07;;
20888;SDS011;10604;51.976;7.594;2023-04-01T04:33:37;3.17;;;2.10;;
20888;SDS011;10604;51.976;7.594;2023-04-01T04:36:03;3.20;;;2.10;;
20888;SDS011;10604;51.976;7.594;2023-04-01T04:38:29;2.03;;;1.80;;
20888;SDS011;10604;51.976;7.594;2023-04-01T04:40:54;2.58;;;2.15;;
20888;SDS011;10604;51.976;7.594;2023-04-01T04:43:20;2.53;;;1.97;;
20888;SDS011;10604;51.976;7.594;2023-04-01T04:45:46;2.40;;;1.77;;
20888;SDS011;10604;51.976;7.594;2023-04-01T04:48:12;3.13;;;1.60;;
20888;SDS011;10604;51.976;7.594;2023-04-01T04:50:43;2.65;;;1.70;;
20888;SDS011;10604;51.976;7.594;2023-04-01T04:53:10;1.60;;;1.40;;
20888;SDS011;10604;51.976;7.594;2023-04-01T04:55:36;1.67;;;1.13;;
20888;SDS011;10604;51.976;7.594;2023-04-01T04:58:01;1.30;;;1.20;;
20888;SDS011;10604;51.976;7.594;2023-04-01T05:00:27;1.23;;;1.13;;
20888;SDS011;10604;51.976;7.594;2023-04-01T05:02:52;1.27;;;1.17;;
20888;SDS011;10604;51.976;7.594;2023-04-01T05:05:17;1.30;;;1.00;;
20888;SDS011;10604;51.976;7.594;2023-04-01T05:07:43;2.25;;;1.15;;
20888;SDS011;10604;51.976;7.594;2023-04-01T05:10:08;2.43;;;1.30;;
20888;SDS011;10604;51.976;7.594;2023-04-01T05:12:34;1.50;;;1.23;;
20888;SDS011;10604;51.976;7.594;2023-04-01T05:15:05;1.65;;;1.20;;
20888;SDS011;10604;51.976;7.594;2023-04-01T05:17:32;1.92;;;1.30;;
20888;SDS011;10604;51.976;7.594;2023-04-01T05:19:57;1.73;;;1.30;;
20888;SDS011;10604;51.976;7.594;2023-04-01T05:22:23;1.83;;;1.40;;
20888;SDS011;10604;51.976;7.594;2023-04-01T05:24:49;2.17;;;1.50;;
20888;SDS011;10604;51.976;7.594;2023-04-01T05:27:14;1.80;;;1.63;;
20888;SDS011;10604;51.976;7.594;2023-04-01T05:29:40;2.10;;;1.90;;
20888;SDS011;10604;51.976;7.594;2023-04-01T05:32:05;3.00;;;1.70;;
20888;SDS011;10604;51.976;7.594;2023-04-01T05:34:30;2.00;;;1.80;;
20888;SDS011;10604;51.976;7.594;2023-04-01T05:36:56;2.50;;;2.13;;
20888;SDS011;10604;51.976;7.594;2023-04-01T05:39:21;2.53;;;1.90;;
20888;SDS011;10604;51.976;7.594;2023-04-01T05:41:47;2.20;;;2.00;;
20888;SDS011;10604;51.976;7.594;2023-04-01T05:44:12;2.35;;;2.15;;
20888;SDS011;10604;51.976;7.594;2023-04-01T05:46:37;3.17;;;2.40;;
20888;SDS011;10604;51.976;7.594;2023-04-01T05:49:03;3.03;;;2.77;;
20888;SDS011;10604;51.976;7.594;2023-04-01T05:51:28;3.13;;;2.83;;
20888;SDS011;10604;51.976;7.594;2023-04-01T05:53:53;3.15;;;2.90;;
20888;SDS011;10604;51.976;7.594;2023-04-01T05:56:19;3.50;;;3.20;;
20888;SDS011;10604;51.976;7.594;2023-04-01T05:58:46;3.43;;;3.13;;
20888;SDS011;10604;51.976;7.594;2023-04-01T06:01:15;3.70;;;3.20;;
20888;SDS011;10604;51.976;7.594;2023-04-01T06:03:40;3.90;;;3.60;;
20888;SDS011;10604;51.976;7.594;2023-04-01T06:06:11;3.77;;;3.47;;
20888;SDS011;10604;51.976;7.594;2023-04-01T06:08:40;3.60;;;3.30;;
20888;SDS011;10604;51.976;7.594;2023-04-01T06:25:07;4.57;;;4.15;;
20888;SDS011;10604;51.976;7.594;2023-04-01T06:31:10;4.45;;;4.05;;
20888;SDS011;10604;51.976;7.594;2023-04-01T06:33:52;4.40;;;4.00;;
20888;SDS011;10604;51.976;7.594;2023-04-01T06:47:43;4.60;;;4.20;;
20888;SDS011;10604;51.976;7.594;2023-04-01T06:50:28;4.45;;;4.10;;
20888;SDS011;10604;51.976;7.594;2023-04-01T06:56:14;5.78;;;4.32;;
20888;SDS011;10604;51.976;7.594;2023-04-01T06:58:48;4.63;;;4.22;;
20888;SDS011;10604;51.976;7.594;2023-04-01T07:01:22;4.30;;;3.90;;
20888;SDS011;10604;51.976;7.594;2023-04-01T07:03:57;4.60;;;4.20;;
20888;SDS011;10604;51.976;7.594;2023-04-01T07:06:30;4.28;;;3.85;;
20888;SDS011;10604;51.976;7.594;2023-04-01T07:09:01;3.50;;;3.20;;
20888;SDS011;10604;51.976;7.594;2023-04-01T07:11:31;3.90;;;3.20;;
20888;SDS011;10604;51.976;7.594;2023-04-01T07:20:24;3.03;;;2.83;;
20888;SDS011;10604;51.976;7.594;2023-04-01T07:22:39;2.38;;;2.17;;
20888;SDS011;10604;51.976;7.594;2023-04-01T07:25:26;2.70;;;2.00;;
20888;SDS011;10604;51.976;7.594;2023-04-01T07:28:06;2.17;;;1.98;;
20888;SDS011;10604;51.976;7.594;2023-04-01T07:30:44;2.30;;;2.03;;
20888;SDS011;10604;51.976;7.594;2023-04-01T07:33:43;2.13;;;2.03;;
20888;SDS011;10604;51.976;7.594;2023-04-01T07:36:23;2.10;;;1.90;;
20888;SDS011;10604;51.976;7.594;2023-04-01T07:55:24;3.03;;;2.05;;
20888;SDS011;10604;51.976;7.594;2023-04-01T08:00:40;2.40;;;2.10;;
20888;SDS011;10604;51.976;7.594;2023-04-01T08:06:11;2.42;;;2.17;;
20888;SDS011;10604;51.976;7.594;2023-04-01T08:11:25;2.20;;;2.00;;
20888;SDS011;10604;51.976;7.594;2023-04-01T08:22:21;2.85;;;2.25;;
20888;SDS011;10604;51.976;7.594;2023-04-01T08:24:52;2.17;;;1.98;;
20888;SDS011;10604;51.976;7.594;2023-04-01T08:27:31;2.35;;;1.95;;
20888;SDS011;10604;51.976;7.594;2023-04-01T08:32:41;2.08;;;1.80;;
20888;SDS011;10604;51.976;7.594;2023-04-01T08:35:14;2.50;;;2.30;;
20888;SDS011;10604;51.976;7.594;2023-04-01T08:38:10;2.33;;;2.00;;
20888;SDS011;10604;51.976;7.594;2023-04-01T08:40:57;3.03;;;2.70;;
20888;SDS011;10604;51.976;7.594;2023-04-01T08:56:55;1.95;;;1.85;;
20888;SDS011;10604;51.976;7.594;2023-04-01T09:10:36;2.77;;;2.57;;
20888;SDS011;10604;51.976;7.594;2023-04-01T09:13:10;2.83;;;2.53;;
20888;SDS011;10604;51.976;7.594;2023-04-01T09:15:49;2.85;;;2.55;;
20888;SDS011;10604;51.976;7.594;2023-04-01T09:27:04;3.80;;;3.33;;
20888;SDS011;10604;51.976;7.594;2023-04-01T09:41:22;3.10;;;2.90;;
20888;SDS011;10604;51.976;7.594;2023-04-01T09:46:53;3.78;;;3.47;;
20888;SDS011;10604;51.976;7.594;2023-04-01T10:00:10;4.20;;;3.90;;
20888;SDS011;10604;51.976;7.594;2023-04-01T10:20:39;3.60;;;3.30;;
20888;SDS011;10604;51.976;7.594;2023-04-01T10:26:38;2.60;;;2.40;;
20888;SDS011;10604;51.976;7.594;2023-04-01T10:37:22;2.08;;;1.90;;
20888;SDS011;10604;51.976;7.594;2023-04-01T10:40:51;2.00;;;1.80;;
20888;SDS011;10604;51.976;7.594;2023-04-01T10:43:43;1.85;;;1.70;;
20888;SDS011;10604;51.976;7.594;2023-04-01T10:57:08;1.33;;;1.20;;
20888;SDS011;10604;51.976;7.594;2023-04-01T11:44:24;4.07;;;3.67;;
20888;SDS011;10604;51.976;7.594;2023-04-01T11:49:44;3.33;;;3.03;;
20888;SDS011;10604;51.976;7.594;2023-04-01T11:57:56;9.75;;;8.80;;
20888;SDS011;10604;51.976;7.594;2023-04-01T12:08:39;3.92;;;3.53;;
20888;SDS011;10604;51.976;7.594;2023-04-01T12:14:27;3.90;;;3.60;;
20888;SDS011;10604;51.976;7.594;2023-04-01T12:19:55;3.80;;;3.25;;
20888;SDS011;10604;51.976;7.594;2023-04-01T12:22:29;3.45;;;3.15;;
20888;SDS011;10604;51.976;7.594;2023-04-01T12:31:09;3.30;;;3.00;;
20888;SDS011;10604;51.976;7.594;2023-04-01T12:48:00;3.70;;;3.40;;
20888;SDS011;10604;51.976;7.594;2023-04-01T12:50:31;4.10;;;3.70;;
20888;SDS011;10604;51.976;7.594;2023-04-01T12:56:06;3.70;;;3.40;;
20888;SDS011;10604;51.976;7.594;2023-04-01T13:07:33;3.97;;;3.57;;
20888;SDS011;10604;51.976;7.594;2023-04-01T13:10:09;3.72;;;3.35;;
20888;SDS011;10604;51.976;7.594;2023-04-01T13:13:30;4.07;;;3.67;;
20888;SDS011;10604;51.976;7.594;2023-04-01T13:15:37;4.38;;;3.97;;
20888;SDS011;10604;51.976;7.594;2023-04-01T13:21:19;4.70;;;4.30;;
20888;SDS011;10604;51.976;7.594;2023-04-01T13:24:03;4.43;;;4.03;;
20888;SDS011;10604;51.976;7.594;2023-04-01T13:27:05;5.13;;;4.43;;
20888;SDS011;10604;51.976;7.594;2023-04-01T13:30:02;4.93;;;4.53;;
20888;SDS011;10604;51.976;7.594;2023-04-01T13:32:46;4.53;;;4.13;;
20888;SDS011;10604;51.976;7.594;2023-04-01T13:35:24;4.57;;;4.18;;
20888;SDS011;10604;51.976;7.594;2023-04-01T13:37:59;4.10;;;3.72;;
20888;SDS011;10604;51.976;7.594;2023-04-01T13:43:24;3.17;;;2.88;;
20888;SDS011;10604;51.976;7.594;2023-04-01T13:49:02;2.58;;;2.38;;
20888;SDS011;10604;51.976;7.594;2023-04-01T14:02:48;2.95;;;2.75;;
20888;SDS011;10604;51.976;7.594;2023-04-01T14:05:39;3.20;;;2.90;;
20888;SDS011;10604;51.976;7.594;2023-04-01T14:19:18;3.55;;;3.25;;
20888;SDS011;10604;51.976;7.594;2023-04-01T14:24:36;3.20;;;2.90;;
20888;SDS011;10604;51.976;7.594;2023-04-01T14:44:15;2.40;;;2.20;;
20888;SDS011;10604;51.976;7.594;2023-04-01T14:49:35;3.13;;;2.83;;
20888;SDS011;10604;51.976;7.594;2023-04-01T14:54:48;4.97;;;4.47;;
20888;SDS011;10604;51.976;7.594;2023-04-01T14:57:16;3.90;;;3.35;;
20888;SDS011;10604;51.976;7.594;2023-04-01T14:59:52;4.65;;;4.25;;
20888;SDS011;10604;51.976;7.594;2023-04-01T15:11:04;2.60;;;1.80;;
20888;SDS011;10604;51.976;7.594;2023-04-01T15:14:01;2.30;;;2.10;;
20888;SDS011;10604;51.976;7.594;2023-04-01T15:19:41;2.42;;;2.22;;
20888;SDS011;10604;51.976;7.594;2023-04-01T15:38:37;3.60;;;3.30;;
20888;SDS011;10604;51.976;7.594;2023-04-01T15:43:59;4.20;;;3.42;;
20888;SDS011;10604;51.976;7.594;2023-04-01T15:46:44;3.53;;;2.70;;
20888;SDS011;10604;51.976;7.594;2023-04-01T16:02:49;2.97;;;2.67;;
20888;SDS011;10604;51.976;7.594;2023-04-01T16:05:37;3.00;;;2.17;;
20888;SDS011;10604;51.976;7.594;2023-04-01T16:21:35;4.90;;;4.43;;
20888;SDS011;10604;51.976;7.594;2023-04-01T16:27:14;3.55;;;3.10;;
20888;SDS011;10604;51.976;7.594;2023-04-01T16:29:56;3.25;;;2.50;;
20888;SDS011;10604;51.976;7.594;2023-04-01T16:35:23;3.72;;;3.42;;
20888;SDS011;10604;51.976;7.594;2023-04-01T16:38:03;4.22;;;3.85;;
20888;SDS011;10604;51.976;7.594;2023-04-01T16:41:05;4.35;;;3.90;;
20888;SDS011;10604;51.976;7.594;2023-04-01T16:43:38;5.03;;;4.63;;
20888;SDS011;10604;51.976;7.594;2023-04-01T16:51:24;5.57;;;5.15;;
20888;SDS011;10604;51.976;7.594;2023-04-01T16:54:02;6.10;;;5.60;;
20888;SDS011;10604;51.976;7.594;2023-04-01T16:57:13;5.82;;;5.20;;
20888;SDS011;10604;51.976;7.594;2023-04-01T16:59:40;4.00;;;3.70;;
20888;SDS011;10604;51.976;7.594;2023-04-01T17:02:20;4.97;;;4.50;;
20888;SDS011;10604;51.976;7.594;2023-04-01T17:15:20;2.75;;;2.55;;
20888;SDS011;10604;51.976;7.594;2023-04-01T17:18:05;1.80;;;1.70;;
20888;SDS011;10604;51.976;7.594;2023-04-01T17:20:36;2.13;;;1.92;;
20888;SDS011;10604;51.976;7.594;2023-04-01T17:23:16;3.35;;;2.83;;
20888;SDS011;10604;51.976;7.594;2023-04-01T17:25:59;2.40;;;2.20;;
20888;SDS011;10604;51.976;7.594;2023-04-01T17:28:56;1.60;;;1.50;;
20888;SDS011;10604;51.976;7.594;2023-04-01T17:42:09;1.60;;;1.30;;
20888;SDS011;10604;51.976;7.594;2023-04-01T17:50:07;2.55;;;1.60;;
20888;SDS011;10604;51.976;7.594;2023-04-01T17:58:20;2.40;;;2.20;;
20888;SDS011;10604;51.976;7.594;2023-04-01T18:00:50;5.47;;;2.33;;
20888;SDS011;10604;51.976;7.594;2023-04-01T18:15:59;2.20;;;2.00;;
20888;SDS011;10604;51.976;7.594;2023-04-01T18:20:43;6.15;;;4.30;;
20888;SDS011;10604;51.976;7.594;2023-04-01T18:26:13;2.00;;;1.70;;
20888;SDS011;10604;51.976;7.594;2023-04-01T18:32:08;1.50;;;1.40;;
20888;SDS011;10604;51.976;7.594;2023-04-01T18:37:48;1.98;;;1.77;;
20888;SDS011;10604;51.976;7.594;2023-04-01T18:43:01;2.10;;;1.90;;
20888;SDS011;10604;51.976;7.594;2023-04-01T18:45:54;1.70;;;1.50;;
20888;SDS011;10604;51.976;7.594;2023-04-01T18:54:25;1.42;;;1.33;;
20888;SDS011;10604;51.976;7.594;2023-04-01T18:57:16;2.03;;;1.30;;
20888;SDS011;10604;51.976;7.594;2023-04-01T19:02:25;2.17;;;1.40;;
20888;SDS011;10604;51.976;7.594;2023-04-01T19:10:06;1.90;;;1.80;;
20888;SDS011;10604;51.976;7.594;2023-04-01T19:12:39;1.50;;;1.40;;
20888;SDS011;10604;51.976;7.594;2023-04-01T19:17:51;1.60;;;1.40;;
20888;SDS011;10604;51.976;7.594;2023-04-01T19:20:24;2.90;;;1.80;;
20888;SDS011;10604;51.976;7.594;2023-04-01T19:23:42;1.90;;;1.40;;
20888;SDS011;10604;51.976;7.594;2023-04-01T19:25:43;1.70;;;1.60;;
20888;SDS011;10604;51.976;7.594;2023-04-01T19:38:52;1.65;;;1.55;;
20888;SDS011;10604;51.976;7.594;2023-04-01T19:41:38;1.73;;;1.63;;
20888;SDS011;10604;51.976;7.594;2023-04-01T19:50:55;2.05;;;1.77;;
20888;SDS011;10604;51.976;7.594;2023-04-01T19:52:59;1.83;;;1.73;;
20888;SDS011;10604;51.976;7.594;2023-04-01T19:55:37;1.85;;;1.60;;
20888;SDS011;10604;51.976;7.594;2023-04-01T19:58:15;1.90;;;1.60;;
20888;SDS011;10604;51.976;7.594;2023-04-01T20:00:43;1.70;;;1.60;;
20888;SDS011;10604;51.976;7.594;2023-04-01T20:14:51;2.40;;;1.98;;
20888;SDS011;10604;51.976;7.594;2023-04-01T20:17:21;2.20;;;2.00;;
20888;SDS011;10604;51.976;7.594;2023-04-01T20:25:00;2.73;;;2.53;;
20888;SDS011;10604;51.976;7.594;2023-04-01T20:27:36;1.80;;;1.70;;
20888;SDS011;10604;51.976;7.594;2023-04-01T20:33:01;1.98;;;1.67;;
20888;SDS011;10604;51.976;7.594;2023-04-01T20:35:34;2.60;;;2.40;;
20888;SDS011;10604;51.976;7.594;2023-04-01T20:41:05;3.30;;;3.00;;
20888;SDS011;10604;51.976;7.594;2023-04-01T21:21:37;1.70;;;1.60;;
20888;SDS011;10604;51.976;7.594;2023-04-01T21:32:26;1.98;;;1.70;;
20888;SDS011;10604;51.976;7.594;2023-04-01T21:35:21;2.05;;;1.90;;
20888;SDS011;10604;51.976;7.594;2023-04-01T21:38:19;2.20;;;2.00;;
20888;SDS011;10604;51.976;7.594;2023-04-01T21:43:49;2.22;;;2.10;;
20888;SDS011;10604;51.976;7.594;2023-04-01T21:46:41;2.28;;;2.08;;
20888;SDS011;10604;51.976;7.594;2023-04-01T21:49:37;2.30;;;2.07;;
20888;SDS011;10604;51.976;7.594;2023-04-01T22:12:17;1.97;;;1.77;;
20888;SDS011;10604;51.976;7.594;2023-04-01T22:31:03;1.87;;;1.77;;
20888;SDS011;10604;51.976;7.594;2023-04-01T22:33:33;1.70;;;1.60;;
20888;SDS011;10604;51.976;7.594;2023-04-01T22:36:17;1.70;;;1.60;;
20888;SDS011;10604;51.976;7.594;2023-04-01T22:39:07;1.70;;;1.60;;
20888;SDS011;10604;51.976;7.594;2023-04-01T22:42:02;1.95;;;1.73;;
20888;SDS011;10604;51.976;7.594;2023-04-01T22:47:23;1.63;;;1.52;;
20888;SDS011;10604;51.976;7.594;2023-04-01T22:49:59;2.20;;;1.70;;
20888;SDS011;10604;51.976;7.594;2023-04-01T22:52:39;2.17;;;1.85;;
20888;SDS011;10604;51.976;7.594;2023-04-01T22:55:12;1.95;;;1.60;;
20888;SDS011;10604;51.976;7.594;2023-04-01T22:57:54;2.00;;;1.80;;
20888;SDS011;10604;51.976;7.594;2023-04-01T23:01:25;2.00;;;1.80;;
20888;SDS011;10604;51.976;7.594;2023-04-01T23:03:40;2.60;;;1.90;;
20888;SDS011;10604;51.976;7.594;2023-04-01T23:06:09;2.07;;;1.80;;
20888;SDS011;10604;51.976;7.594;2023-04-01T23:11:43;2.10;;;1.90;;
20888;SDS011;10604;51.976;7.594;2023-04-01T23:16:57;2.88;;;2.05;;
20888;SDS011;10604;51.976;7.594;2023-04-01T23:25:45;1.98;;;1.75;;
20888;SDS011;10604;51.976;7.594;2023-04-01T23:33:11;2.17;;;1.98;;
20888;SDS011;10604;51.976;7.594;2023-04-01T23:38:19;2.40;;;1.85;;
20888;SDS011;10604;51.976;7.594;2023-04-01T23:40:50;2.45;;;1.90;;
20888;SDS011;10604;51.976;7.594;2023-04-01T23:43:31;2.35;;;2.08;;
20888;SDS011;10604;51.976;7.594;2023-04-01T23:46:02;2.55;;;2.35;;
20888;SDS011;10604;51.976;7.594;2023-04-01T23:48:33;3.35;;;2.40;;
20888;SDS011;10604;51.976;7.594;2023-04-01T23:51:53;2.72;;;2.53;;
20888;SDS011;10604;51.976;7.594;2023-04-01T23:54:14;2.67;;;2.40;;
20888;SDS011;10604;51.976;7.594;2023-04-01T23:56:44;2.70;;;2.20;;
20888;SDS011;10604;51.976;7.594;2023-04-01T23:59:22;2.67;;;2.30;;
